Time;durP1;ratioP1;P1;durP2;ratioP2;P2;SDS_P1;SDS_P2;PMS_P1;PMS_P2;Temp;Humidity;BMP_temperature;BMP_pressure;BME280_temperature;BME280_humidity;BME280_pressure;Samples;Min_cycle;Max_cycle;Signal;HPM_P1;HPM_P2
2022/11/15 00:00:57;;;;;;;;;;;10.60;99.90;;;;;;5019640;28;19968;-66
2022/11/15 00:03:27;;;;;;;;;;;10.70;99.90;;;;;;5014487;28;19980;-66
2022/11/15 00:05:55;;;;;;;;;;;10.70;99.90;;;;;;5014552;28;20532;-66
2022/11/15 00:08:23;;;;;;;;;;;10.70;99.90;;;;;;5014612;28;19976;-66
2022/11/15 00:10:57;;;;;;;;;;;10.70;99.90;;;;;;5013792;28;19973;-67
2022/11/15 00:13:25;;;;;;;;;;;10.70;99.90;;;;;;5026353;28;19975;-66
2022/11/15 00:15:53;;;;;;;;;;;10.60;99.90;;;;;;5034071;28;19994;-66
2022/11/15 00:18:22;;;;;;;;;;;10.50;99.90;;;;;;5033968;28;19975;-66
2022/11/15 00:20:49;;;;;;;;;;;10.50;99.90;;;;;;5033329;28;19976;-66
2022/11/15 00:23:17;;;;;;;;;;;10.60;99.90;;;;;;5033070;28;19976;-66
2022/11/15 00:25:45;;;;;;;;;;;10.50;99.90;;;;;;5033988;28;19997;-66
2022/11/15 00:28:13;;;;;;;;;;;10.50;99.90;;;;;;5033836;28;19978;-66
2022/11/15 00:30:40;;;;;;;;;;;10.50;99.90;;;;;;5033232;28;19965;-65
2022/11/15 00:33:09;;;;;;;;;;;10.60;99.90;;;;;;5033540;28;20461;-66
2022/11/15 00:35:38;;;;;;;;;;;10.70;99.90;;;;;;5033482;28;20355;-65
2022/11/15 00:38:06;;;;;;;;;;;10.80;99.90;;;;;;5033728;28;19973;-66
2022/11/15 00:40:33;;;;;;;;;;;10.70;99.90;;;;;;5033042;28;19988;-67
2022/11/15 00:43:01;;;;;;;;;;;10.80;99.90;;;;;;5033548;28;19973;-66
2022/11/15 00:45:29;;;;;;;;;;;10.90;99.90;;;;;;5033317;28;20047;-66
2022/11/15 00:47:57;;;;;;;;;;;10.80;99.90;;;;;;5033591;28;20348;-66
2022/11/15 00:50:24;;;;;;;;;;;10.80;99.90;;;;;;5030996;28;20059;-66
2022/11/15 00:52:53;;;;;;;;;;;10.80;99.90;;;;;;5013578;28;19976;-66
2022/11/15 00:55:21;;;;;;;;;;;10.90;99.90;;;;;;5013482;28;19968;-66
2022/11/15 00:57:49;;;;;;;;;;;10.90;99.90;;;;;;5013779;28;19972;-66
2022/11/15 01:00:17;;;;;;;;;;;10.90;99.90;;;;;;5013029;28;19969;-66
2022/11/15 01:02:45;;;;;;;;;;;10.80;99.90;;;;;;5013200;28;20060;-65
2022/11/15 01:05:12;;;;;;;;;;;10.70;99.90;;;;;;5013410;28;19969;-66
2022/11/15 01:07:40;;;;;;;;;;;10.60;99.90;;;;;;5013712;28;20330;-66
2022/11/15 01:10:10;;;;;;;;;;;10.40;99.90;;;;;;5012711;28;19973;-66
2022/11/15 01:12:37;;;;;;;;;;;10.60;99.90;;;;;;5018593;28;19977;-65
2022/11/15 01:15:06;;;;;;;;;;;10.70;99.90;;;;;;5033181;28;19972;-66
2022/11/15 01:17:33;;;;;;;;;;;10.70;99.90;;;;;;5032951;28;19964;-66
2022/11/15 01:20:01;;;;;;;;;;;10.80;99.90;;;;;;5032201;28;20433;-66
2022/11/15 01:22:29;;;;;;;;;;;10.80;99.90;;;;;;5032421;28;19973;-67
2022/11/15 01:24:56;;;;;;;;;;;10.90;99.90;;;;;;5026580;28;19980;-66
2022/11/15 01:27:25;;;;;;;;;;;10.90;99.90;;;;;;5013180;28;19987;-66
2022/11/15 01:29:53;;;;;;;;;;;10.80;99.90;;;;;;5012304;28;19969;-67
2022/11/15 01:32:21;;;;;;;;;;;10.80;99.90;;;;;;5012950;28;19969;-67
2022/11/15 01:34:48;;;;;;;;;;;10.80;99.90;;;;;;5012606;28;20171;-66
2022/11/15 01:37:16;;;;;;;;;;;10.80;99.90;;;;;;5012703;28;19969;-66
2022/11/15 01:39:44;;;;;;;;;;;10.90;99.90;;;;;;5012153;28;20017;-66
2022/11/15 01:42:13;;;;;;;;;;;10.90;99.90;;;;;;5021332;28;19965;-66
2022/11/15 01:44:47;;;;;;;;;;;10.90;99.90;;;;;;5032307;28;19968;-66
2022/11/15 01:47:16;;;;;;;;;;;10.90;99.90;;;;;;5074259;22;19970;-63
2022/11/15 01:49:48;;;;;;;;;;;11.00;99.90;;;;;;5051479;28;19975;-63
2022/11/15 01:52:19;;;;;;;;;;;11.10;99.90;;;;;;5052065;28;20642;-63
2022/11/15 01:54:48;;;;;;;;;;;11.10;99.90;;;;;;5052410;28;19976;-63
2022/11/15 01:57:15;;;;;;;;;;;11.20;99.90;;;;;;5052212;28;19975;-63
2022/11/15 01:59:44;;;;;;;;;;;11.20;99.90;;;;;;5051491;28;19968;-63
2022/11/15 02:02:14;;;;;;;;;;;11.20;99.90;;;;;;5052189;28;19976;-64
2022/11/15 02:04:42;;;;;;;;;;;11.40;99.90;;;;;;5052171;28;19967;-63
2022/11/15 02:07:11;;;;;;;;;;;11.40;99.90;;;;;;5051745;28;20011;-63
2022/11/15 02:09:40;;;;;;;;;;;11.40;99.90;;;;;;5051473;28;19974;-63
2022/11/15 02:12:09;;;;;;;;;;;11.40;99.90;;;;;;5051863;28;19972;-64
2022/11/15 02:14:37;;;;;;;;;;;11.50;99.90;;;;;;5052031;28;19968;-63
2022/11/15 02:17:10;;;;;;;;;;;11.60;99.90;;;;;;5051706;28;19968;-63
2022/11/15 02:19:56;;;;;;;;;;;11.60;99.90;;;;;;5043244;28;19964;-62
2022/11/15 02:22:32;;;;;;;;;;;11.50;99.90;;;;;;5041680;28;20444;-63
2022/11/15 02:25:05;;;;;;;;;;;11.60;99.90;;;;;;5051983;28;20344;-63
2022/11/15 02:27:42;;;;;;;;;;;11.60;99.90;;;;;;5051703;28;20341;-63
2022/11/15 02:30:22;;;;;;;;;;;11.70;99.90;;;;;;5051100;28;20445;-62
2022/11/15 02:32:52;;;;;;;;;;;11.70;99.90;;;;;;5051584;28;19974;-63
2022/11/15 02:35:25;;;;;;;;;;;11.70;99.90;;;;;;5051479;28;19974;-63
2022/11/15 02:37:56;;;;;;;;;;;11.70;99.90;;;;;;5051714;28;20364;-63
2022/11/15 02:40:27;;;;;;;;;;;11.60;99.90;;;;;;5051108;28;19971;-63
2022/11/15 02:45:47;;;;;;;;;;;11.60;99.90;;;;;;5051321;28;19968;-63
2022/11/15 02:48:16;;;;;;;;;;;11.60;99.90;;;;;;5055325;28;20451;-63
2022/11/15 02:50:44;;;;;;;;;;;11.60;99.90;;;;;;5054778;28;19975;-63
2022/11/15 02:53:12;;;;;;;;;;;11.60;99.90;;;;;;5055474;28;20505;-63
2022/11/15 02:55:42;;;;;;;;;;;11.60;99.90;;;;;;5055587;28;19968;-63
2022/11/15 02:58:19;;;;;;;;;;;11.60;99.90;;;;;;5055576;28;20054;-63
2022/11/15 03:00:51;;;;;;;;;;;11.60;99.90;;;;;;5054900;28;19966;-63
2022/11/15 03:03:24;;;;;;;;;;;11.50;99.90;;;;;;5055335;28;19968;-63
2022/11/15 03:05:54;;;;;;;;;;;11.50;99.90;;;;;;5055554;28;19975;-63
2022/11/15 03:08:26;;;;;;;;;;;11.40;99.90;;;;;;5055235;28;19975;-63
2022/11/15 03:10:58;;;;;;;;;;;11.30;99.90;;;;;;5054644;28;19979;-63
2022/11/15 03:13:27;;;;;;;;;;;11.20;99.90;;;;;;5055019;28;20441;-63
2022/11/15 03:16:02;;;;;;;;;;;11.20;99.90;;;;;;5055241;28;20079;-63
2022/11/15 03:18:32;;;;;;;;;;;11.20;99.90;;;;;;5055235;28;19975;-63
2022/11/15 03:21:01;;;;;;;;;;;11.20;99.90;;;;;;5054442;28;20492;-64
2022/11/15 03:23:29;;;;;;;;;;;11.10;99.90;;;;;;5054634;28;20523;-64
2022/11/15 03:25:59;;;;;;;;;;;11.10;99.90;;;;;;5055097;28;19968;-63
2022/11/15 03:28:31;;;;;;;;;;;11.00;99.90;;;;;;5055132;28;19972;-63
2022/11/15 03:31:46;;;;;;;;;;;11.00;99.90;;;;;;5054444;28;19975;-63
2022/11/15 03:33:50;;;;;;;;;;;11.10;99.90;;;;;;5054545;28;19972;-63
2022/11/15 03:36:18;;;;;;;;;;;11.00;99.90;;;;;;5054678;28;19972;-63
2022/11/15 03:38:46;;;;;;;;;;;11.10;99.90;;;;;;5054967;28;19973;-63
2022/11/15 03:41:17;;;;;;;;;;;11.00;99.90;;;;;;5053968;28;19968;-63
2022/11/15 03:43:48;;;;;;;;;;;11.10;99.90;;;;;;5054623;28;19976;-63
2022/11/15 03:46:20;;;;;;;;;;;11.10;99.90;;;;;;5054424;28;19979;-63
2022/11/15 03:48:52;;;;;;;;;;;11.10;99.90;;;;;;5054411;28;20453;-63
2022/11/15 03:51:20;;;;;;;;;;;11.00;99.90;;;;;;5053864;28;19968;-63
2022/11/15 03:53:48;;;;;;;;;;;11.00;99.90;;;;;;5054428;28;19972;-63
2022/11/15 03:56:16;;;;;;;;;;;10.80;99.90;;;;;;5054468;28;19975;-63
2022/11/15 03:58:43;;;;;;;;;;;10.80;99.90;;;;;;5054204;28;19975;-63
2022/11/15 04:01:11;;;;;;;;;;;10.80;99.90;;;;;;5053720;28;19974;-62
2022/11/15 04:03:40;;;;;;;;;;;10.80;99.90;;;;;;5054234;28;19968;-63
2022/11/15 04:06:08;;;;;;;;;;;10.80;99.90;;;;;;5054099;28;20444;-63
2022/11/15 04:08:36;;;;;;;;;;;10.80;99.90;;;;;;5054149;28;20061;-62
2022/11/15 04:11:03;;;;;;;;;;;10.80;99.90;;;;;;5053574;28;19968;-62
2022/11/15 04:13:31;;;;;;;;;;;10.90;99.90;;;;;;5053942;28;20351;-63
2022/11/15 04:15:59;;;;;;;;;;;11.00;99.90;;;;;;5054043;28;19968;-63
2022/11/15 04:18:27;;;;;;;;;;;11.10;99.90;;;;;;5053924;28;19974;-63
2022/11/15 04:26:26;;;;;;;;;;;11.00;99.90;;;;;;5053985;28;19974;-63
2022/11/15 04:31:40;;;;;;;;;;;11.00;99.90;;;;;;5053165;28;20330;-63
2022/11/15 04:34:08;;;;;;;;;;;11.10;99.90;;;;;;5053696;28;19986;-63
2022/11/15 04:39:22;;;;;;;;;;;11.10;99.90;;;;;;5053769;28;20441;-63
2022/11/15 04:41:49;;;;;;;;;;;11.20;99.90;;;;;;5053098;28;19969;-63
2022/11/15 04:44:17;;;;;;;;;;;11.10;99.90;;;;;;5053533;28;20030;-63
2022/11/15 04:46:45;;;;;;;;;;;11.10;99.90;;;;;;5053277;28;19978;-63
2022/11/15 04:49:12;;;;;;;;;;;11.00;99.90;;;;;;5053281;28;19964;-63
2022/11/15 04:51:42;;;;;;;;;;;10.90;99.90;;;;;;5052702;28;19968;-63
2022/11/15 04:54:09;;;;;;;;;;;10.90;99.90;;;;;;5053265;28;19974;-63
2022/11/15 04:56:37;;;;;;;;;;;10.90;99.90;;;;;;5053343;28;19968;-63
2022/11/15 04:59:05;;;;;;;;;;;10.90;99.90;;;;;;5053284;28;19968;-63
2022/11/15 05:01:32;;;;;;;;;;;10.90;99.90;;;;;;5052654;28;20363;-63
2022/11/15 05:06:47;;;;;;;;;;;11.00;99.90;;;;;;5052990;28;20453;-62
2022/11/15 05:09:15;;;;;;;;;;;11.00;99.90;;;;;;5052605;28;20476;-63
2022/11/15 05:11:43;;;;;;;;;;;11.10;99.90;;;;;;5052300;28;19978;-63
2022/11/15 05:14:11;;;;;;;;;;;11.20;99.90;;;;;;5052894;28;19968;-63
2022/11/15 05:16:39;;;;;;;;;;;11.40;99.90;;;;;;5053077;28;19972;-63
2022/11/15 05:19:07;;;;;;;;;;;11.50;99.90;;;;;;5052832;28;19964;-64
2022/11/15 05:21:35;;;;;;;;;;;11.60;99.90;;;;;;5051814;28;19977;-63
2022/11/15 05:24:04;;;;;;;;;;;11.60;99.90;;;;;;5052286;28;20042;-63
2022/11/15 05:26:32;;;;;;;;;;;11.60;99.90;;;;;;5052973;28;19972;-63
2022/11/15 05:29:00;;;;;;;;;;;11.60;99.90;;;;;;5052633;28;19968;-63
2022/11/15 05:31:28;;;;;;;;;;;11.60;99.90;;;;;;5052170;28;19968;-63
2022/11/15 05:33:56;;;;;;;;;;;11.40;99.90;;;;;;5052490;28;20356;-63
2022/11/15 05:36:28;;;;;;;;;;;11.40;99.90;;;;;;5052417;28;20326;-63
2022/11/15 05:38:55;;;;;;;;;;;11.30;99.90;;;;;;5057803;28;19964;-65
2022/11/15 05:41:27;;;;;;;;;;;11.30;99.90;;;;;;5046374;28;19974;-63
2022/11/15 05:43:55;;;;;;;;;;;11.10;99.90;;;;;;5041100;28;20017;-62
2022/11/15 05:46:23;;;;;;;;;;;11.00;99.90;;;;;;5040588;28;19982;-63
2022/11/15 05:48:52;;;;;;;;;;;10.90;99.90;;;;;;5040041;28;19972;-63
2022/11/15 05:51:21;;;;;;;;;;;10.90;99.90;;;;;;5039843;28;19976;-63
2022/11/15 05:53:49;;;;;;;;;;;10.90;99.90;;;;;;5040400;28;20013;-63
2022/11/15 05:56:16;;;;;;;;;;;10.90;99.90;;;;;;5040281;28;20388;-63
2022/11/15 05:58:46;;;;;;;;;;;11.00;99.90;;;;;;5038786;28;19964;-62
2022/11/15 06:01:13;;;;;;;;;;;10.80;99.90;;;;;;5038895;28;19964;-63
2022/11/15 06:03:41;;;;;;;;;;;10.90;99.90;;;;;;5040531;28;20018;-62
2022/11/15 06:06:09;;;;;;;;;;;10.90;99.90;;;;;;5040619;28;19971;-63
2022/11/15 06:08:43;;;;;;;;;;;10.80;99.90;;;;;;5037614;28;20325;-63
2022/11/15 06:11:10;;;;;;;;;;;10.90;99.90;;;;;;5039708;28;19971;-63
2022/11/15 06:13:38;;;;;;;;;;;10.90;99.90;;;;;;5040107;28;19986;-63
2022/11/15 06:16:07;;;;;;;;;;;10.90;99.90;;;;;;5040297;28;19972;-63
2022/11/15 06:18:36;;;;;;;;;;;10.80;99.90;;;;;;5038807;28;19979;-62
2022/11/15 06:21:04;;;;;;;;;;;10.90;99.90;;;;;;5039240;28;19975;-63
2022/11/15 06:23:32;;;;;;;;;;;10.90;99.90;;;;;;5040009;28;20019;-63
2022/11/15 06:26:01;;;;;;;;;;;10.90;99.90;;;;;;5040303;28;20877;-63
2022/11/15 06:28:29;;;;;;;;;;;10.90;99.90;;;;;;5038512;28;19972;-63
2022/11/15 06:30:57;;;;;;;;;;;10.80;99.90;;;;;;5039146;28;20014;-63
2022/11/15 06:33:26;;;;;;;;;;;10.90;99.90;;;;;;5040082;28;20006;-64
2022/11/15 06:35:54;;;;;;;;;;;10.90;99.90;;;;;;5040057;28;19979;-63
2022/11/15 06:38:21;;;;;;;;;;;10.90;99.90;;;;;;5037627;28;20479;-63
2022/11/15 06:40:49;;;;;;;;;;;10.90;99.90;;;;;;5039165;28;20621;-63
2022/11/15 06:43:17;;;;;;;;;;;10.90;99.90;;;;;;5039499;28;20453;-64
2022/11/15 06:45:44;;;;;;;;;;;10.90;99.90;;;;;;5039628;28;20017;-63
2022/11/15 06:48:12;;;;;;;;;;;10.90;99.90;;;;;;5038322;28;19968;-61
2022/11/15 06:50:41;;;;;;;;;;;10.90;99.90;;;;;;5039699;28;19964;-62
2022/11/15 06:53:09;;;;;;;;;;;10.90;99.90;;;;;;5040176;28;19971;-63
2022/11/15 06:55:37;;;;;;;;;;;10.90;99.90;;;;;;5039939;28;20445;-63
2022/11/15 06:58:04;;;;;;;;;;;10.90;99.90;;;;;;5038332;28;20022;-62
2022/11/15 07:00:32;;;;;;;;;;;10.90;99.90;;;;;;5039459;28;19972;-62
2022/11/15 07:03:00;;;;;;;;;;;10.90;99.90;;;;;;5039789;28;20058;-62
2022/11/15 07:05:28;;;;;;;;;;;10.90;99.90;;;;;;5039496;28;20919;-62
2022/11/15 07:07:58;;;;;;;;;;;10.90;99.90;;;;;;5038581;28;20804;-63
2022/11/15 07:10:26;;;;;;;;;;;10.90;99.90;;;;;;5039453;28;19976;-62
2022/11/15 07:12:55;;;;;;;;;;;10.90;99.90;;;;;;5039441;28;19968;-63
2022/11/15 07:15:23;;;;;;;;;;;10.90;99.90;;;;;;5039415;28;19986;-63
2022/11/15 07:17:51;;;;;;;;;;;10.80;99.90;;;;;;5037903;28;19972;-63
2022/11/15 07:20:19;;;;;;;;;;;10.80;99.90;;;;;;5039061;28;19982;-63
2022/11/15 07:22:47;;;;;;;;;;;10.80;99.90;;;;;;5049511;28;20318;-62
2022/11/15 07:25:16;;;;;;;;;;;10.90;99.90;;;;;;5050755;28;19974;-63
2022/11/15 07:27:43;;;;;;;;;;;10.90;99.90;;;;;;5050960;28;20067;-63
2022/11/15 07:30:12;;;;;;;;;;;11.00;99.90;;;;;;5046949;28;19964;-63
2022/11/15 07:32:42;;;;;;;;;;;10.90;99.90;;;;;;5049449;28;19964;-62
2022/11/15 07:35:10;;;;;;;;;;;10.80;99.90;;;;;;5054602;28;20050;-63
2022/11/15 07:37:37;;;;;;;;;;;10.90;99.90;;;;;;5054887;28;19978;-63
2022/11/15 07:40:06;;;;;;;;;;;10.80;99.90;;;;;;5054116;28;20071;-63
2022/11/15 07:45:19;;;;;;;;;;;10.80;99.90;;;;;;5054307;28;19978;-63
2022/11/15 07:47:47;;;;;;;;;;;10.80;99.90;;;;;;5091534;22;20323;-63
2022/11/15 07:50:15;;;;;;;;;;;10.90;99.90;;;;;;5062360;28;19968;-63
2022/11/15 07:52:43;;;;;;;;;;;10.90;99.90;;;;;;5074486;28;19974;-63
2022/11/15 07:55:11;;;;;;;;;;;10.90;99.90;;;;;;5074435;28;20479;-63
2022/11/15 07:57:40;;;;;;;;;;;11.00;99.90;;;;;;5074346;28;19968;-63
2022/11/15 08:00:08;;;;;;;;;;;11.00;99.90;;;;;;5073785;28;19975;-65
2022/11/15 08:02:36;;;;;;;;;;;11.00;99.90;;;;;;5074269;28;19971;-65
2022/11/15 08:05:04;;;;;;;;;;;11.10;99.90;;;;;;5074139;28;19968;-65
2022/11/15 08:07:32;;;;;;;;;;;11.20;99.90;;;;;;5074067;28;19968;-65
2022/11/15 08:10:01;;;;;;;;;;;11.20;99.90;;;;;;5073566;28;20445;-65
2022/11/15 08:12:29;;;;;;;;;;;11.30;99.90;;;;;;5074146;28;20472;-66
2022/11/15 08:14:58;;;;;;;;;;;11.30;99.90;;;;;;5074020;28;19975;-65
2022/11/15 08:17:26;;;;;;;;;;;11.30;99.90;;;;;;5073788;28;19971;-65
2022/11/15 08:19:54;;;;;;;;;;;11.20;99.90;;;;;;5065236;28;20457;-65
2022/11/15 08:22:22;;;;;;;;;;;11.20;99.90;;;;;;5073853;28;19968;-65
2022/11/15 08:24:49;;;;;;;;;;;11.30;99.90;;;;;;5074145;28;20437;-65
2022/11/15 08:27:17;;;;;;;;;;;11.30;99.90;;;;;;5073923;28;20325;-65
2022/11/15 08:29:45;;;;;;;;;;;11.30;99.90;;;;;;5073115;28;20070;-65
2022/11/15 08:32:14;;;;;;;;;;;11.30;99.90;;;;;;5074010;28;19972;-66
2022/11/15 08:34:42;;;;;;;;;;;11.20;99.90;;;;;;5073712;28;19983;-65
2022/11/15 08:37:10;;;;;;;;;;;11.20;99.90;;;;;;5073676;28;20071;-65
2022/11/15 08:39:38;;;;;;;;;;;11.20;99.90;;;;;;5072945;28;19974;-65
2022/11/15 08:42:05;;;;;;;;;;;11.20;99.90;;;;;;5073520;28;20455;-65
2022/11/15 08:44:33;;;;;;;;;;;11.20;99.90;;;;;;5072692;28;19997;-65
2022/11/15 08:47:01;;;;;;;;;;;11.20;99.90;;;;;;5073211;28;19972;-65
2022/11/15 08:49:30;;;;;;;;;;;11.20;99.90;;;;;;5064850;28;19978;-66
2022/11/15 08:51:58;;;;;;;;;;;11.20;99.90;;;;;;5073256;28;20007;-65
2022/11/15 08:54:25;;;;;;;;;;;11.30;99.90;;;;;;5073105;28;19974;-65
2022/11/15 08:56:53;;;;;;;;;;;11.40;99.90;;;;;;5073138;28;19972;-65
2022/11/15 08:59:21;;;;;;;;;;;11.40;99.90;;;;;;5073498;28;19978;-65
2022/11/15 09:01:49;;;;;;;;;;;11.50;99.90;;;;;;5072611;28;19967;-66
2022/11/15 09:04:17;;;;;;;;;;;11.60;99.90;;;;;;5073206;28;19972;-66
2022/11/15 09:06:46;;;;;;;;;;;11.70;99.90;;;;;;5073187;28;20364;-65
2022/11/15 09:09:14;;;;;;;;;;;11.70;99.90;;;;;;5072947;28;19971;-66
2022/11/15 09:11:42;;;;;;;;;;;11.80;99.90;;;;;;5072311;28;20318;-66
2022/11/15 09:14:11;;;;;;;;;;;11.80;99.90;;;;;;5072962;28;19975;-65
2022/11/15 09:16:39;;;;;;;;;;;11.90;99.90;;;;;;5072819;28;20014;-65
2022/11/15 09:19:07;;;;;;;;;;;11.90;99.90;;;;;;5065269;28;19968;-65
2022/11/15 09:21:38;;;;;;;;;;;12.00;99.90;;;;;;5052086;28;20433;-65
2022/11/15 09:24:08;;;;;;;;;;;11.90;99.90;;;;;;5052964;28;20337;-66
2022/11/15 09:26:36;;;;;;;;;;;12.00;99.90;;;;;;5052614;28;20019;-65
2022/11/15 09:29:03;;;;;;;;;;;12.10;99.90;;;;;;5052807;28;19968;-65
2022/11/15 09:31:31;;;;;;;;;;;12.10;99.90;;;;;;5051636;28;20079;-65
2022/11/15 09:33:59;;;;;;;;;;;12.20;99.90;;;;;;5052659;28;19968;-65
2022/11/15 09:36:27;;;;;;;;;;;12.40;99.90;;;;;;5052387;28;20389;-65
2022/11/15 09:38:54;;;;;;;;;;;12.40;99.90;;;;;;5052587;28;19975;-66
2022/11/15 09:41:29;;;;;;;;;;;12.50;99.90;;;;;;5051939;28;19990;-66
2022/11/15 09:44:04;;;;;;;;;;;12.60;99.90;;;;;;5052539;28;19972;-66
2022/11/15 09:46:37;;;;;;;;;;;12.70;99.90;;;;;;5052201;28;19968;-66
2022/11/15 09:49:05;;;;;;;;;;;12.50;99.90;;;;;;5063354;28;20022;-66
2022/11/15 09:51:33;;;;;;;;;;;12.40;99.90;;;;;;5070945;28;19968;-65
2022/11/15 09:54:04;;;;;;;;;;;12.40;99.90;;;;;;5072611;28;19971;-65
2022/11/15 09:56:53;;;;;;;;;;;12.30;99.90;;;;;;5071822;28;19979;-65
2022/11/15 09:59:27;;;;;;;;;;;12.30;99.90;;;;;;5071984;28;19998;-66
2022/11/15 10:01:57;;;;;;;;;;;12.40;99.90;;;;;;5071378;28;20452;-65
2022/11/15 10:04:26;;;;;;;;;;;12.50;99.90;;;;;;5072386;28;20063;-66
2022/11/15 10:06:56;;;;;;;;;;;12.50;99.90;;;;;;5072696;28;19974;-66
2022/11/15 10:09:24;;;;;;;;;;;12.50;99.90;;;;;;5071829;28;19974;-66
2022/11/15 10:11:54;;;;;;;;;;;12.60;99.90;;;;;;5071162;28;19968;-66
2022/11/15 10:14:23;;;;;;;;;;;12.60;99.90;;;;;;5071965;28;19987;-66
2022/11/15 10:17:11;;;;;;;;;;;12.50;99.90;;;;;;5071908;28;19974;-66
2022/11/15 10:19:43;;;;;;;;;;;12.50;99.90;;;;;;5053148;28;19963;-66
2022/11/15 10:22:18;;;;;;;;;;;12.50;99.90;;;;;;5051823;28;20433;-66
2022/11/15 10:24:47;;;;;;;;;;;12.50;99.90;;;;;;5051716;28;19974;-66
2022/11/15 10:27:17;;;;;;;;;;;12.50;99.90;;;;;;5051979;28;20046;-66
2022/11/15 10:29:47;;;;;;;;;;;12.50;99.90;;;;;;5051188;28;20368;-66
2022/11/15 10:32:16;;;;;;;;;;;12.40;99.90;;;;;;5052175;28;19978;-66
2022/11/15 10:34:43;;;;;;;;;;;12.40;99.90;;;;;;5051672;28;19974;-66
2022/11/15 10:37:11;;;;;;;;;;;12.40;99.90;;;;;;5051613;28;19975;-66
2022/11/15 10:39:39;;;;;;;;;;;12.30;99.90;;;;;;5050502;28;20460;-66
2022/11/15 10:42:18;;;;;;;;;;;12.30;99.90;;;;;;5051571;28;19968;-66
2022/11/15 10:44:46;;;;;;;;;;;12.40;99.90;;;;;;5051686;28;19974;-65
2022/11/15 10:47:24;;;;;;;;;;;12.30;99.90;;;;;;5054275;28;19993;-66
2022/11/15 10:50:12;;;;;;;;;;;12.30;99.90;;;;;;5062312;28;19964;-66
2022/11/15 10:52:46;;;;;;;;;;;12.30;99.90;;;;;;5065265;28;20086;-66
2022/11/15 10:55:22;;;;;;;;;;;12.40;99.90;;;;;;5071706;28;19967;-66
2022/11/15 10:57:53;;;;;;;;;;;12.40;99.90;;;;;;5071597;28;19976;-66
2022/11/15 11:00:32;;;;;;;;;;;12.30;99.90;;;;;;5070994;28;20480;-66
2022/11/15 11:03:01;;;;;;;;;;;12.30;99.90;;;;;;5071510;28;19972;-64
2022/11/15 11:05:31;;;;;;;;;;;12.30;99.90;;;;;;5071476;28;19968;-65
2022/11/15 11:08:20;;;;;;;;;;;12.20;99.90;;;;;;5073102;28;19968;-64
2022/11/15 11:10:52;;;;;;;;;;;12.20;99.90;;;;;;5074665;28;19971;-64
2022/11/15 11:13:30;;;;;;;;;;;12.20;99.90;;;;;;5075166;28;19972;-64
2022/11/15 11:16:01;;;;;;;;;;;12.20;99.90;;;;;;5074838;28;20356;-64
2022/11/15 11:18:34;;;;;;;;;;;12.30;99.90;;;;;;5072677;28;19990;-65
2022/11/15 11:21:04;;;;;;;;;;;12.30;99.90;;;;;;5069542;28;20076;-64
2022/11/15 11:23:40;;;;;;;;;;;12.50;99.90;;;;;;5075175;28;19974;-64
2022/11/15 11:26:16;;;;;;;;;;;12.60;99.90;;;;;;5074926;28;20085;-65
2022/11/15 11:28:49;;;;;;;;;;;12.70;99.90;;;;;;5075495;28;19974;-65
2022/11/15 11:31:21;;;;;;;;;;;12.70;99.90;;;;;;5074373;28;20336;-64
2022/11/15 11:33:56;;;;;;;;;;;12.80;99.90;;;;;;5074972;28;20436;-65
2022/11/15 11:36:26;;;;;;;;;;;12.90;99.90;;;;;;5074770;28;19968;-64
2022/11/15 11:38:58;;;;;;;;;;;13.00;99.90;;;;;;5074779;28;20357;-64
2022/11/15 11:41:40;;;;;;;;;;;13.10;99.90;;;;;;5074039;28;19980;-64
2022/11/15 11:44:12;;;;;;;;;;;13.20;99.90;;;;;;5074940;28;19978;-64
2022/11/15 11:46:48;;;;;;;;;;;13.10;99.90;;;;;;5074488;28;20343;-64
2022/11/15 11:49:18;;;;;;;;;;;13.20;99.90;;;;;;5066352;28;20059;-64
2022/11/15 11:51:50;;;;;;;;;;;13.10;99.90;;;;;;5073862;28;20441;-65
2022/11/15 11:54:21;;;;;;;;;;;13.00;99.90;;;;;;5074621;28;19976;-64
2022/11/15 11:56:49;;;;;;;;;;;12.80;99.90;;;;;;5074346;28;20461;-64
2022/11/15 11:59:20;;;;;;;;;;;12.70;99.90;;;;;;5074598;28;19974;-64
2022/11/15 12:01:47;;;;;;;;;;;12.60;99.90;;;;;;5073868;28;20066;-63
2022/11/15 12:04:18;;;;;;;;;;;12.70;99.90;;;;;;5074159;28;20025;-64
2022/11/15 12:06:48;;;;;;;;;;;12.80;99.90;;;;;;5074407;28;20348;-64
2022/11/15 12:09:18;;;;;;;;;;;13.00;99.90;;;;;;5074218;28;20074;-64
2022/11/15 12:11:50;;;;;;;;;;;13.00;99.90;;;;;;5073456;28;20436;-64
2022/11/15 12:14:25;;;;;;;;;;;13.10;99.90;;;;;;5074249;28;19978;-65
2022/11/15 12:16:53;;;;;;;;;;;13.20;99.90;;;;;;5074003;28;19982;-64
2022/11/15 12:19:21;;;;;;;;;;;13.20;99.90;;;;;;5064367;28;19968;-64
2022/11/15 12:21:51;;;;;;;;;;;13.10;99.90;;;;;;5073432;28;20373;-64
2022/11/15 12:24:20;;;;;;;;;;;13.10;99.90;;;;;;5074274;28;19967;-64
2022/11/15 12:26:51;;;;;;;;;;;13.10;99.90;;;;;;5073789;28;19966;-64
2022/11/15 12:29:21;;;;;;;;;;;13.00;99.90;;;;;;5073618;28;19971;-65
2022/11/15 12:31:52;;;;;;;;;;;12.90;99.90;;;;;;5073331;28;19968;-64
2022/11/15 12:34:37;;;;;;;;;;;12.80;99.90;;;;;;5074331;28;20450;-66
2022/11/15 12:37:20;;;;;;;;;;;12.70;99.90;;;;;;5073576;28;19974;-66
2022/11/15 12:40:05;;;;;;;;;;;12.60;99.90;;;;;;5072376;28;20002;-64
2022/11/15 12:42:40;;;;;;;;;;;12.70;99.90;;;;;;5073656;28;19974;-65
2022/11/15 12:45:23;;;;;;;;;;;12.70;99.90;;;;;;5073451;28;20415;-64
2022/11/15 12:47:52;;;;;;;;;;;12.70;99.90;;;;;;5072835;28;20066;-64
2022/11/15 12:50:34;;;;;;;;;;;12.60;99.90;;;;;;5064511;28;20273;-64
2022/11/15 12:53:20;;;;;;;;;;;12.60;99.90;;;;;;5072541;28;20018;-64
2022/11/15 12:56:08;;;;;;;;;;;12.70;99.90;;;;;;5060287;28;19972;-64
2022/11/15 12:58:41;;;;;;;;;;;12.70;99.90;;;;;;5073423;28;20453;-64
2022/11/15 13:01:10;;;;;;;;;;;12.80;99.90;;;;;;5072674;28;19972;-65
2022/11/15 13:04:06;;;;;;;;;;;12.80;99.90;;;;;;5073506;28;19979;-64
2022/11/15 13:06:38;;;;;;;;;;;12.80;99.90;;;;;;5072955;28;19968;-64
2022/11/15 13:09:40;;;;;;;;;;;12.70;99.90;;;;;;5073224;28;20439;-64
2022/11/15 13:12:09;;;;;;;;;;;12.70;99.90;;;;;;5072885;28;19972;-64
2022/11/15 13:14:40;;;;;;;;;;;12.70;99.90;;;;;;5073075;28;19974;-65
2022/11/15 13:17:33;;;;;;;;;;;12.70;99.90;;;;;;5072482;28;20073;-64
2022/11/15 13:20:03;;;;;;;;;;;12.80;99.90;;;;;;5041229;28;20013;-65
2022/11/15 13:22:54;;;;;;;;;;;12.90;99.90;;;;;;5052963;28;19972;-65
2022/11/15 13:25:28;;;;;;;;;;;13.10;99.90;;;;;;5052634;28;20387;-67
2022/11/15 13:27:57;;;;;;;;;;;13.20;99.90;;;;;;5052886;28;19974;-65
2022/11/15 13:30:31;;;;;;;;;;;13.20;99.90;;;;;;5061298;28;19975;-65
2022/11/15 13:33:01;;;;;;;;;;;13.20;99.90;;;;;;5073096;28;19964;-65
2022/11/15 13:35:32;;;;;;;;;;;13.30;99.90;;;;;;5072414;28;19968;-65
2022/11/15 13:38:04;;;;;;;;;;;13.30;99.90;;;;;;5073109;28;20066;-65
2022/11/15 13:40:35;;;;;;;;;;;13.30;99.90;;;;;;5072058;28;19968;-65
2022/11/15 13:43:14;;;;;;;;;;;13.30;99.90;;;;;;5072720;28;20055;-65
2022/11/15 13:45:43;;;;;;;;;;;13.30;99.90;;;;;;5072554;28;20437;-65
2022/11/15 13:48:11;;;;;;;;;;;13.40;99.90;;;;;;5168487;22;20344;-65
2022/11/15 13:50:39;;;;;;;;;;;13.50;99.90;;;;;;5071568;28;19968;-65
2022/11/15 13:53:10;;;;;;;;;;;13.50;99.90;;;;;;5072205;28;19975;-65
2022/11/15 13:55:38;;;;;;;;;;;13.60;99.90;;;;;;5072522;28;20055;-65
2022/11/15 13:58:06;;;;;;;;;;;13.60;99.90;;;;;;5071781;28;20019;-65
2022/11/15 14:00:36;;;;;;;;;;;13.70;99.90;;;;;;5071170;28;19971;-65
2022/11/15 14:03:06;;;;;;;;;;;13.80;99.90;;;;;;5071758;28;19972;-66
2022/11/15 14:05:34;;;;;;;;;;;13.90;99.90;;;;;;5071825;28;20500;-65
2022/11/15 14:08:03;;;;;;;;;;;14.00;99.90;;;;;;5071949;28;20432;-65
2022/11/15 14:10:37;;;;;;;;;;;14.00;99.90;;;;;;5070811;28;20297;-65
2022/11/15 14:13:05;;;;;;;;;;;14.10;99.90;;;;;;5072127;28;19978;-65
2022/11/15 14:15:34;;;;;;;;;;;14.10;99.90;;;;;;5072272;28;19983;-65
2022/11/15 14:18:02;;;;;;;;;;;14.00;99.90;;;;;;5071726;28;19968;-65
2022/11/15 14:20:32;;;;;;;;;;;13.90;99.90;;;;;;5070897;28;19966;-65
2022/11/15 14:23:01;;;;;;;;;;;13.90;99.90;;;;;;5072015;28;19967;-65
2022/11/15 14:25:29;;;;;;;;;;;13.80;99.90;;;;;;5071477;28;20459;-65
2022/11/15 14:28:15;;;;;;;;;;;13.70;99.90;;;;;;5071874;28;20059;-65
2022/11/15 14:30:46;;;;;;;;;;;13.70;99.90;;;;;;5071204;28;20066;-65
2022/11/15 14:33:19;;;;;;;;;;;13.80;99.90;;;;;;5071828;28;19968;-65
2022/11/15 14:35:47;;;;;;;;;;;13.80;99.90;;;;;;5071760;28;19971;-66
2022/11/15 14:38:14;;;;;;;;;;;13.80;99.90;;;;;;5071458;28;19976;-65
2022/11/15 14:40:43;;;;;;;;;;;13.70;99.90;;;;;;5070620;28;20067;-65
2022/11/15 14:43:11;;;;;;;;;;;13.80;99.90;;;;;;5070856;28;20352;-65
2022/11/15 14:45:40;;;;;;;;;;;13.70;99.90;;;;;;5071661;28;19974;-65
2022/11/15 14:48:08;;;;;;;;;;;13.70;99.90;;;;;;5071104;28;19964;-65
2022/11/15 14:50:36;;;;;;;;;;;13.70;99.90;;;;;;5070909;28;19989;-64
2022/11/15 14:53:04;;;;;;;;;;;13.70;99.90;;;;;;5071502;28;19978;-65